Aeroporto :
LOGIN :

Iscrizione | Disclaimer

   EN    FR    IT 

 










Sommario :    VFR   VFR Marginale   IFR   IFR Intensivo   IFR Molto Intensivo
Visibilità : 
Base nubi : 
>= 8 km
>= 3000ft
5 / 8 km
1000 / 3000 ft
1500m / 5 km
500 / 1000 ft
800 / 1500m
200 / 500 ft
< 800m
< 200 ft
Simboli :   Temporali  Nebbia  Neve Forte  Precipitazioni Forti  Vento > 20 kt
SIGMETs :   Varie  Temporali  Ghiacco  Turbolenza  Onda orograficha  Ceneri Vulcaniche






- Altitudine del aeroporto : 645 ft
- Codice IATA : DLE


LFGJ - Dole Tavaux

ULTIMO METAR :
  • 250700Z AUTO 06007KT CAVOK 23/16 Q1012 NOSIG

METARs OBSOLETI :
  • 250630Z AUTO 04008KT CAVOK 22/15 Q1012 NOSIG
  • 250600Z AUTO 04008KT CAVOK 21/16 Q1012 NOSIG
  • 250530Z AUTO 04006KT CAVOK 20/16 Q1012 NOSIG
  • 250500Z AUTO 04007KT CAVOK 18/16 Q1012
  • 250430Z AUTO 03005KT CAVOK 17/15 Q1012
  • 250400Z AUTO 36003KT CAVOK 17/15 Q1012
  • 250330Z AUTO 35005KT CAVOK 16/14 Q1012
  • 250300Z AUTO 01008KT CAVOK 17/15 Q1012

TAF TAF LFGJ
Valido dal 25 a 06 ore il 25 a 15 ore UTC


250500Z 2506/2515 04006KT CAVOK
PROB40
TEMPO 2512/2515 FEW055CB



MetMap, La meteo Aeronautica in un colpo d'occhio ! - Copyright ORBIFLY Dicembre 2007 - Disclaimer

ORBIFLY MET'MAP TEAM :

Programmazione e sviluppo : Alexandra Zaïnal
Concezione : Baudouin d'Aumeries
Supporto tecnico e logistico : Manuel Goepfert
Aiuto : Marc-Olivier Méhu
Aiuto per la traduzione : Arnaldo La Scala




FONTI E CREDITI :

   NOAA